Time;durP1;ratioP1;P1;durP2;ratioP2;P2;SDS_P1;SDS_P2;PMS_P1;PMS_P2;Temp;Humidity;BMP_temperature;BMP_pressure;BME280_temperature;BME280_humidity;BME280_pressure;Samples;Min_cycle;Max_cycle;Signal;HPM_P1;HPM_P2
2022/11/12 00:01:56;;;;;;;26.30;13.83;;;10.20;99.90;;;;;;4732995;30;20685;-80
2022/11/12 00:04:23;;;;;;;24.07;13.83;;;10.20;99.90;;;;;;4732788;30;20237;-80
2022/11/12 00:06:50;;;;;;;26.93;13.70;;;10.10;99.90;;;;;;4732811;30;20305;-81
2022/11/12 00:09:18;;;;;;;28.53;14.30;;;10.10;99.90;;;;;;4732982;30;20194;-80
2022/11/12 00:11:45;;;;;;;24.90;13.23;;;10.10;99.90;;;;;;4732980;30;20214;-81
2022/11/12 00:14:15;;;;;;;25.70;13.27;;;10.20;99.90;;;;;;4732917;30;20206;-81
2022/11/12 00:16:42;;;;;;;26.87;13.40;;;10.30;99.90;;;;;;4732555;30;20257;-81
2022/11/12 00:19:09;;;;;;;26.77;13.63;;;10.20;99.90;;;;;;4732894;30;20252;-82
2022/11/12 00:21:36;;;;;;;22.93;13.00;;;10.20;99.90;;;;;;4733965;30;20262;-82
2022/11/12 00:24:12;;;;;;;24.27;13.13;;;10.20;99.90;;;;;;4733615;30;20210;-82
2022/11/12 00:26:42;;;;;;;23.00;13.00;;;10.20;99.90;;;;;;4732258;30;20218;-83
2022/11/12 00:29:09;;;;;;;23.40;13.20;;;10.20;99.90;;;;;;4717996;30;20207;-81
2022/11/12 00:31:37;;;;;;;22.10;12.70;;;10.20;99.90;;;;;;4732563;30;20728;-84
2022/11/12 00:34:04;;;;;;;25.20;13.33;;;10.30;99.90;;;;;;4764892;29;20299;-83
2022/11/12 00:36:31;;;;;;;25.53;13.17;;;10.10;99.90;;;;;;4757886;30;20615;-85
2022/11/12 00:38:58;;;;;;;23.60;13.03;;;10.20;99.90;;;;;;4772161;29;20208;-79
2022/11/12 00:41:25;;;;;;;27.10;13.13;;;10.10;99.90;;;;;;4788444;29;20200;-81
2022/11/12 00:43:52;;;;;;;25.63;12.70;;;10.10;99.90;;;;;;4787884;29;20203;-84
2022/11/12 00:46:20;;;;;;;23.10;12.63;;;10.10;99.90;;;;;;4763610;30;20592;-78
2022/11/12 00:48:46;;;;;;;24.37;12.77;;;10.20;99.90;;;;;;4765190;30;20220;-80
2022/11/12 00:51:14;;;;;;;24.77;12.53;;;10.20;99.90;;;;;;4769283;30;20217;-79
2022/11/12 00:53:41;;;;;;;23.03;12.30;;;10.30;99.90;;;;;;4769815;30;20260;-79
2022/11/12 00:56:08;;;;;;;25.93;12.57;;;10.40;99.90;;;;;;4768740;30;20223;-82
2022/11/12 00:58:36;;;;;;;22.87;12.03;;;10.30;99.90;;;;;;4754318;30;20392;-79
2022/11/12 01:01:12;;;;;;;22.40;12.33;;;10.40;99.90;;;;;;4756471;30;20200;-81
2022/11/12 01:03:40;;;;;;;24.87;12.20;;;10.40;99.90;;;;;;4761693;30;20218;-85
2022/11/12 01:06:14;;;;;;;23.40;12.03;;;10.40;99.90;;;;;;4784577;30;20200;-79
2022/11/12 01:08:42;;;;;;;20.33;11.63;;;10.40;99.90;;;;;;4762073;30;20583;-85
2022/11/12 01:11:13;;;;;;;22.87;12.07;;;10.50;99.90;;;;;;4757691;30;20201;-76
2022/11/12 01:13:44;;;;;;;21.33;11.80;;;10.50;99.90;;;;;;4757805;30;20204;-77
2022/11/12 01:16:21;;;;;;;19.83;11.33;;;10.50;99.90;;;;;;4765074;30;20262;-85
2022/11/12 01:18:52;;;;;;;26.33;12.03;;;10.40;99.90;;;;;;4772320;30;20677;-81
2022/11/12 01:21:20;;;;;;;23.20;11.57;;;10.40;99.90;;;;;;4772219;30;20290;-78
2022/11/12 01:23:48;;;;;;;19.67;11.97;;;10.40;99.90;;;;;;4773160;30;20189;-81
2022/11/12 01:26:17;;;;;;;20.17;11.40;;;10.40;99.90;;;;;;4771972;30;20612;-84
2022/11/12 01:28:45;;;;;;;21.67;12.20;;;10.40;99.90;;;;;;4782823;30;20200;-81
2022/11/12 01:31:21;;;;;;;20.97;11.67;;;10.40;99.90;;;;;;4791099;29;20686;-81
2022/11/12 01:33:51;;;;;;;22.13;11.87;;;10.50;99.90;;;;;;4775253;30;20299;-82
2022/11/12 01:36:19;;;;;;;21.70;11.90;;;10.40;99.90;;;;;;4788946;29;20291;-81
2022/11/12 01:38:47;;;;;;;20.77;11.03;;;10.50;99.90;;;;;;4773594;30;20258;-82
2022/11/12 01:41:22;;;;;;;22.77;12.23;;;10.50;99.90;;;;;;4774306;30;20268;-81
2022/11/12 01:44:25;;;;;;;26.23;11.83;;;10.40;99.90;;;;;;4783322;30;20201;-82
2022/11/12 01:47:17;;;;;;;27.30;11.20;;;10.50;99.90;;;;;;4782889;30;20266;-82
2022/11/12 01:50:18;;;;;;;20.73;11.93;;;10.40;99.90;;;;;;4765424;30;20228;-79
2022/11/12 01:52:50;;;;;;;24.30;12.20;;;10.40;99.90;;;;;;4772683;30;20229;-81
2022/11/12 01:55:26;;;;;;;22.73;11.80;;;10.30;99.90;;;;;;4772885;30;20201;-83
2022/11/12 01:58:13;;;;;;;22.27;12.17;;;10.30;99.90;;;;;;4746293;30;20591;-83
2022/11/12 02:00:41;;;;;;;20.37;11.87;;;10.30;99.90;;;;;;4772826;30;20686;-82
2022/11/12 02:03:18;;;;;;;20.83;11.37;;;10.40;99.90;;;;;;4772952;30;20196;-82
2022/11/12 02:06:12;;;;;;;21.40;10.90;;;10.30;99.90;;;;;;4772471;30;20197;-82
2022/11/12 02:08:40;;;;;;;20.57;11.43;;;10.40;99.90;;;;;;4756634;30;20620;-82
2022/11/12 02:11:31;;;;;;;22.83;11.70;;;10.40;99.90;;;;;;4756169;30;20616;-83
2022/11/12 02:14:01;;;;;;;24.87;11.93;;;10.40;99.90;;;;;;4756576;30;20668;-82
2022/11/12 02:16:45;;;;;;;22.87;11.63;;;10.40;99.90;;;;;;4756342;30;20572;-82
2022/11/12 02:19:15;;;;;;;21.80;11.27;;;10.40;99.90;;;;;;4744651;30;20205;-81
2022/11/12 02:21:43;;;;;;;28.17;12.23;;;10.40;99.90;;;;;;4756411;30;20299;-82
2022/11/12 02:24:13;;;;;;;20.70;11.10;;;10.40;99.90;;;;;;4756400;30;20675;-82
2022/11/12 02:26:44;;;;;;;26.13;11.23;;;10.40;99.90;;;;;;4772637;30;20264;-82
2022/11/12 02:29:12;;;;;;;19.07;11.03;;;10.40;99.90;;;;;;4756690;30;20223;-82
2022/11/12 02:31:42;;;;;;;23.60;11.70;;;10.40;99.90;;;;;;4772545;30;20659;-81
2022/11/12 02:34:09;;;;;;;22.50;11.23;;;10.30;99.90;;;;;;4771349;30;20578;-81
2022/11/12 02:36:36;;;;;;;21.27;11.53;;;10.40;99.90;;;;;;4770669;30;20220;-82
2022/11/12 02:39:04;;;;;;;20.87;10.70;;;10.40;99.90;;;;;;4760357;30;20201;-82
2022/11/12 02:41:34;;;;;;;20.33;11.90;;;10.30;99.90;;;;;;4772372;30;20208;-82
2022/11/12 02:44:02;;;;;;;22.97;11.67;;;10.40;99.90;;;;;;4756336;30;20205;-82
2022/11/12 02:46:32;;;;;;;21.83;11.03;;;10.40;99.90;;;;;;4772183;30;20204;-82
2022/11/12 02:48:59;;;;;;;20.80;10.77;;;10.40;99.90;;;;;;4755911;30;20233;-82
2022/11/12 02:51:26;;;;;;;18.87;10.77;;;10.30;99.90;;;;;;4756066;30;20581;-82
2022/11/12 02:53:54;;;;;;;23.17;11.83;;;10.40;99.90;;;;;;4772151;30;20225;-81
2022/11/12 02:56:21;;;;;;;23.47;11.60;;;10.30;99.90;;;;;;4770522;30;20253;-82
2022/11/12 02:58:48;;;;;;;20.33;10.73;;;10.40;99.90;;;;;;4755667;30;20240;-82
2022/11/12 03:01:15;;;;;;;22.60;11.67;;;10.40;99.90;;;;;;4771878;30;20668;-81
2022/11/12 03:03:42;;;;;;;20.20;10.90;;;10.40;99.90;;;;;;4772028;30;20685;-82
2022/11/12 03:06:09;;;;;;;22.77;11.00;;;10.40;99.90;;;;;;4755991;30;20258;-82
2022/11/12 03:08:36;;;;;;;19.90;11.63;;;10.30;99.90;;;;;;4758535;30;20320;-81
2022/11/12 03:11:09;;;;;;;21.47;11.23;;;10.30;99.90;;;;;;4756373;30;20296;-82
2022/11/12 03:13:37;;;;;;;22.97;11.77;;;10.30;99.90;;;;;;4755743;30;20204;-82
2022/11/12 03:16:04;;;;;;;19.47;11.07;;;10.30;99.90;;;;;;4773079;30;20262;-81
2022/11/12 03:18:36;;;;;;;23.03;11.43;;;10.30;99.90;;;;;;4762782;30;20334;-80
2022/11/12 03:21:06;;;;;;;20.40;11.73;;;10.40;99.90;;;;;;4764418;30;20288;-80
2022/11/12 03:23:33;;;;;;;18.27;11.13;;;10.20;99.90;;;;;;4754741;30;20240;-79
2022/11/12 03:26:04;;;;;;;18.53;11.27;;;10.20;99.90;;;;;;4755115;30;20296;-82
2022/11/12 03:28:31;;;;;;;19.87;11.73;;;10.30;99.90;;;;;;4770170;30;20217;-82
2022/11/12 03:30:59;;;;;;;21.13;11.33;;;10.20;99.90;;;;;;4769783;30;20201;-81
2022/11/12 03:33:27;;;;;;;21.20;11.83;;;10.20;99.90;;;;;;4756410;30;20667;-81
2022/11/12 03:35:54;;;;;;;20.83;10.83;;;10.30;99.90;;;;;;4755791;30;20219;-82
2022/11/12 03:38:21;;;;;;;21.43;11.17;;;10.40;99.90;;;;;;4771272;30;20584;-81
2022/11/12 03:40:48;;;;;;;18.77;11.30;;;10.40;99.90;;;;;;4757984;30;20205;-83
2022/11/12 03:43:16;;;;;;;17.87;11.20;;;10.30;99.90;;;;;;4771677;30;20240;-83
2022/11/12 03:45:43;;;;;;;20.97;11.40;;;10.20;99.90;;;;;;4775356;30;20206;-83
2022/11/12 03:48:10;;;;;;;21.70;11.07;;;10.20;99.90;;;;;;4769880;30;20215;-82
2022/11/12 03:50:37;;;;;;;19.63;10.87;;;10.30;99.90;;;;;;4769925;30;20209;-85
2022/11/12 03:53:04;;;;;;;21.17;11.13;;;10.30;99.90;;;;;;4769476;30;20581;-82
2022/11/12 03:55:31;;;;;;;19.77;11.23;;;10.30;99.90;;;;;;4754798;30;20266;-82
2022/11/12 03:57:58;;;;;;;19.63;10.80;;;10.30;99.90;;;;;;4754756;30;20239;-82
2022/11/12 04:00:28;;;;;;;18.03;10.70;;;10.20;99.90;;;;;;4770731;30;20205;-79
2022/11/12 04:02:59;;;;;;;20.50;11.07;;;10.20;99.90;;;;;;4771098;30;20235;-83
2022/11/12 04:08:34;;;;;;;19.70;10.90;;;10.10;99.90;;;;;;4769348;30;20224;-81
2022/11/12 04:11:13;;;;;;;22.03;11.47;;;10.10;99.90;;;;;;4769210;30;20201;-82
2022/11/12 04:13:44;;;;;;;18.90;10.33;;;10.00;99.90;;;;;;4755796;30;20239;-81
2022/11/12 04:22:02;;;;;;;26.57;11.80;;;10.10;99.90;;;;;;4768985;30;20233;-81
2022/11/12 04:27:22;;;;;;;19.03;10.90;;;10.20;99.90;;;;;;4769155;30;20234;-85
2022/11/12 04:32:39;;;;;;;20.63;11.10;;;10.20;99.90;;;;;;4773649;30;20200;-80
2022/11/12 04:35:10;;;;;;;25.43;11.73;;;10.30;99.90;;;;;;4753965;30;20531;-80
2022/11/12 04:37:45;;;;;;;20.03;11.47;;;10.30;99.90;;;;;;4769510;30;20695;-86
2022/11/12 04:45:58;;;;;;;21.87;12.00;;;10.20;99.90;;;;;;4770779;30;20197;-83
2022/11/12 04:48:26;;;;;;;21.30;11.57;;;10.20;99.90;;;;;;4754673;30;20262;-86
2022/11/12 04:50:58;;;;;;;20.27;11.30;;;10.10;99.90;;;;;;4754588;30;20254;-82
2022/11/12 04:53:32;;;;;;;19.10;11.57;;;10.20;99.90;;;;;;4770174;30;20718;-83
2022/11/12 04:55:59;;;;;;;22.47;11.77;;;10.10;99.90;;;;;;4754359;30;20291;-82
2022/11/12 04:58:26;;;;;;;22.03;11.43;;;10.10;99.90;;;;;;4770128;30;20239;-81
2022/11/12 05:00:54;;;;;;;19.10;11.27;;;10.20;99.90;;;;;;4774439;30;20272;-84
2022/11/12 05:03:24;;;;;;;21.97;11.60;;;10.10;99.90;;;;;;4773495;30;20276;-83
2022/11/12 05:05:54;;;;;;;23.03;11.53;;;10.20;99.90;;;;;;4753863;30;20247;-83
2022/11/12 05:08:26;;;;;;;20.10;11.07;;;10.30;99.90;;;;;;4754960;30;20201;-85
2022/11/12 05:10:54;;;;;;;20.87;11.23;;;10.30;99.90;;;;;;4770059;30;20606;-83
2022/11/12 05:13:21;;;;;;;19.23;10.77;;;10.30;99.90;;;;;;4770122;30;20205;-87
2022/11/12 05:15:48;;;;;;;18.73;10.30;;;10.20;99.90;;;;;;4769950;30;20270;-85
2022/11/12 05:18:15;;;;;;;21.23;11.10;;;10.20;99.90;;;;;;4754438;30;20229;-83
2022/11/12 05:20:42;;;;;;;24.50;12.50;;;10.20;99.90;;;;;;4768735;30;20697;-85
2022/11/12 05:23:10;;;;;;;24.80;12.23;;;10.10;99.90;;;;;;4766069;30;20205;-83
2022/11/12 05:25:37;;;;;;;24.63;12.70;;;10.10;99.90;;;;;;4754272;30;20205;-84
2022/11/12 05:28:04;;;;;;;26.37;12.97;;;10.00;99.90;;;;;;4769894;30;20671;-83
2022/11/12 05:30:36;;;;;;;27.07;13.40;;;9.90;99.90;;;;;;4772181;30;20691;-84
2022/11/12 05:33:04;;;;;;;30.07;13.83;;;9.90;99.90;;;;;;4768693;30;20205;-82
2022/11/12 05:35:31;;;;;;;26.20;13.67;;;9.70;99.90;;;;;;4769836;30;20677;-85
2022/11/12 05:38:01;;;;;;;27.60;13.33;;;9.60;99.90;;;;;;4753764;30;20675;-82
2022/11/12 05:40:28;;;;;;;26.03;13.47;;;9.60;99.90;;;;;;4770633;30;20188;-81
2022/11/12 05:42:55;;;;;;;24.67;13.77;;;9.50;99.90;;;;;;4769345;30;20557;-81
2022/11/12 05:45:22;;;;;;;32.30;14.57;;;9.50;99.90;;;;;;4754424;30;20267;-81
2022/11/12 05:47:50;;;;;;;28.13;14.40;;;9.40;99.90;;;;;;4771837;30;20277;-82
2022/11/12 05:50:17;;;;;;;23.57;13.23;;;9.40;99.90;;;;;;4774178;30;20610;-82
2022/11/12 05:52:44;;;;;;;26.33;14.07;;;9.50;99.90;;;;;;4773969;30;20706;-86
2022/11/12 05:55:12;;;;;;;21.77;13.07;;;9.40;99.90;;;;;;4756628;30;20229;-83
2022/11/12 05:57:39;;;;;;;25.77;13.57;;;9.50;99.90;;;;;;4756685;30;20205;-82
2022/11/12 06:00:07;;;;;;;29.67;14.70;;;9.50;99.90;;;;;;4772872;30;20249;-81
2022/11/12 06:02:43;;;;;;;26.80;14.67;;;9.50;99.90;;;;;;4757505;30;20304;-83
2022/11/12 06:05:10;;;;;;;25.90;14.20;;;9.50;99.90;;;;;;4771409;30;20694;-80
2022/11/12 06:07:37;;;;;;;26.27;13.80;;;9.40;99.90;;;;;;4756577;30;20213;-82
2022/11/12 06:10:05;;;;;;;25.73;14.20;;;9.50;99.90;;;;;;4772021;30;20212;-81
2022/11/12 06:12:32;;;;;;;23.87;13.60;;;9.50;99.90;;;;;;4771564;30;20205;-81
2022/11/12 06:15:00;;;;;;;24.47;13.73;;;9.40;99.90;;;;;;4756362;30;20209;-81
2022/11/12 06:17:32;;;;;;;22.73;12.70;;;9.40;99.90;;;;;;4770765;30;20679;-81
2022/11/12 06:19:59;;;;;;;29.67;14.43;;;9.40;99.90;;;;;;4756633;30;20205;-80
2022/11/12 06:22:27;;;;;;;27.40;14.63;;;9.30;99.90;;;;;;4756569;30;20635;-81
2022/11/12 06:24:54;;;;;;;28.03;15.50;;;9.30;99.90;;;;;;4772119;30;20274;-83
2022/11/12 06:27:22;;;;;;;27.63;14.87;;;9.20;99.90;;;;;;4757581;30;20755;-80
2022/11/12 06:30:01;;;;;;;28.60;15.17;;;9.10;99.90;;;;;;4771245;30;20384;-83
2022/11/12 06:32:38;;;;;;;29.33;14.10;;;9.00;99.90;;;;;;4772264;30;20553;-80
2022/11/12 06:35:06;;;;;;;30.97;15.33;;;9.00;99.90;;;;;;4778728;30;20223;-80
2022/11/12 06:37:36;;;;;;;31.03;16.23;;;8.90;99.90;;;;;;4772879;30;20211;-82
2022/11/12 06:40:04;;;;;;;31.40;16.80;;;8.80;99.90;;;;;;4758765;30;20208;-82
2022/11/12 06:42:32;;;;;;;31.07;16.93;;;8.70;99.90;;;;;;4756165;30;20736;-82
2022/11/12 06:44:59;;;;;;;29.83;16.53;;;8.70;99.90;;;;;;4770514;30;20240;-85
2022/11/12 06:47:29;;;;;;;31.37;17.00;;;8.70;99.90;;;;;;4772149;30;20205;-86
2022/11/12 06:49:56;;;;;;;36.03;16.77;;;8.70;99.90;;;;;;4772306;30;20287;-80
2022/11/12 06:52:23;;;;;;;28.77;16.37;;;8.80;99.90;;;;;;4772302;30;20240;-82
2022/11/12 06:54:51;;;;;;;35.33;17.47;;;8.80;99.90;;;;;;4774077;30;20255;-78
2022/11/12 06:57:19;;;;;;;30.17;17.13;;;8.80;99.90;;;;;;4770955;30;20643;-84
2022/11/12 06:59:46;;;;;;;28.67;16.27;;;8.70;99.90;;;;;;4771526;30;20291;-80
2022/11/12 07:02:13;;;;;;;28.57;16.17;;;8.60;99.90;;;;;;4776038;30;20205;-82
2022/11/12 07:04:40;;;;;;;26.97;15.63;;;8.70;99.90;;;;;;4755698;30;20212;-84
2022/11/12 07:07:07;;;;;;;29.13;16.13;;;8.60;99.90;;;;;;4755689;30;20232;-83
2022/11/12 07:09:37;;;;;;;27.20;15.60;;;8.50;99.90;;;;;;4770487;30;20191;-82
2022/11/12 07:12:13;;;;;;;30.20;15.90;;;8.50;99.90;;;;;;4771740;30;20205;-82
2022/11/12 07:14:46;;;;;;;32.07;17.27;;;8.40;99.90;;;;;;4758640;30;20215;-80
2022/11/12 07:17:13;;;;;;;39.67;19.00;;;8.40;99.90;;;;;;4770207;30;20213;-81
2022/11/12 07:19:40;;;;;;;34.03;18.07;;;8.40;99.90;;;;;;4755068;30;20227;-81
2022/11/12 07:22:07;;;;;;;35.67;19.33;;;8.40;99.90;;;;;;4770229;30;20233;-81
2022/11/12 07:24:34;;;;;;;36.77;20.53;;;8.60;99.90;;;;;;4771172;30;20218;-85
2022/11/12 07:27:02;;;;;;;40.20;20.33;;;8.40;99.90;;;;;;4771432;30;20206;-84
2022/11/12 07:29:29;;;;;;;42.50;21.20;;;8.40;99.90;;;;;;4755398;30;20205;-85
2022/11/12 07:32:13;;;;;;;43.77;21.53;;;8.30;99.90;;;;;;4755214;30;20239;-82
2022/11/12 07:34:40;;;;;;;41.47;20.80;;;8.30;99.90;;;;;;4770223;30;20216;-82
2022/11/12 07:37:10;;;;;;;38.60;21.13;;;8.30;99.90;;;;;;4755342;30;20220;-84
2022/11/12 07:39:37;;;;;;;40.03;20.57;;;8.30;99.90;;;;;;4771176;30;20315;-80
2022/11/12 07:42:05;;;;;;;46.07;21.87;;;8.30;99.90;;;;;;4755362;30;20662;-81
2022/11/12 07:44:32;;;;;;;41.07;21.27;;;8.40;99.90;;;;;;4770123;30;20205;-82
2022/11/12 07:46:59;;;;;;;41.27;20.63;;;8.40;99.90;;;;;;4769630;30;20212;-81
2022/11/12 07:49:26;;;;;;;44.67;22.47;;;8.50;99.90;;;;;;4769852;30;20559;-83
2022/11/12 07:51:53;;;;;;;43.33;23.37;;;8.50;99.90;;;;;;4772154;30;20227;-84
2022/11/12 07:54:20;;;;;;;49.57;22.20;;;8.40;99.90;;;;;;4754713;30;20729;-86
2022/11/12 07:56:47;;;;;;;44.53;22.10;;;8.50;99.90;;;;;;4770788;30;20664;-86
2022/11/12 07:59:14;;;;;;;42.33;22.90;;;8.60;99.90;;;;;;4755074;30;20233;-84
2022/11/12 08:01:41;;;;;;;46.83;23.77;;;8.50;99.90;;;;;;4769640;30;20211;-84
2022/11/12 08:04:10;;;;;;;44.13;22.77;;;8.60;99.90;;;;;;4769362;30;20213;-84
2022/11/12 08:06:37;;;;;;;51.23;25.50;;;8.50;99.90;;;;;;4754325;30;20216;-85
2022/11/12 08:09:06;;;;;;;48.37;24.03;;;8.50;99.90;;;;;;4754420;30;20216;-84
2022/11/12 08:11:34;;;;;;;48.00;23.47;;;8.50;99.90;;;;;;4754529;30;20209;-84
2022/11/12 08:14:01;;;;;;;45.43;23.17;;;8.60;99.90;;;;;;4771279;30;20219;-84
2022/11/12 08:16:28;;;;;;;43.67;22.70;;;8.60;99.90;;;;;;4754187;30;20196;-82
2022/11/12 08:18:55;;;;;;;45.37;23.27;;;8.50;99.90;;;;;;4770219;30;20224;-81
2022/11/12 08:21:22;;;;;;;43.10;22.47;;;8.60;99.90;;;;;;4754665;30;20312;-81
2022/11/12 08:23:49;;;;;;;44.47;22.10;;;8.60;99.90;;;;;;4768971;30;20205;-87
2022/11/12 08:26:18;;;;;;;45.57;22.97;;;8.60;99.90;;;;;;4754163;30;20251;-80
2022/11/12 08:28:48;;;;;;;43.40;22.47;;;8.40;99.90;;;;;;4755204;30;20292;-80
2022/11/12 08:31:18;;;;;;;45.17;23.20;;;8.40;99.90;;;;;;4754377;30;20227;-81
2022/11/12 08:33:45;;;;;;;43.63;21.37;;;8.60;99.90;;;;;;4769014;30;20209;-79
2022/11/12 08:36:14;;;;;;;48.80;22.77;;;8.60;99.90;;;;;;4770043;30;20212;-82
2022/11/12 08:38:42;;;;;;;40.87;21.83;;;8.40;99.90;;;;;;4768888;30;20235;-80
2022/11/12 08:41:12;;;;;;;43.47;22.47;;;8.50;99.90;;;;;;4769422;30;20226;-80
2022/11/12 08:43:40;;;;;;;39.93;21.53;;;8.50;99.90;;;;;;4754010;30;20624;-86
2022/11/12 08:46:08;;;;;;;46.20;23.03;;;8.60;99.90;;;;;;4770113;30;20220;-80
2022/11/12 08:48:35;;;;;;;44.77;23.30;;;8.60;99.90;;;;;;4770508;30;20611;-80
2022/11/12 08:51:04;;;;;;;47.23;22.63;;;8.70;99.90;;;;;;4753864;30;20212;-80
2022/11/12 08:53:31;;;;;;;47.87;22.40;;;8.80;99.90;;;;;;4754767;30;20247;-81
2022/11/12 08:55:58;;;;;;;40.40;22.33;;;8.60;99.90;;;;;;4755229;30;20245;-81
2022/11/12 08:58:25;;;;;;;44.03;22.67;;;8.70;99.90;;;;;;4754128;30;20277;-86
2022/11/12 09:00:54;;;;;;;43.53;22.77;;;8.80;99.90;;;;;;4768685;30;20204;-81
2022/11/12 09:03:23;;;;;;;40.43;22.00;;;8.90;99.90;;;;;;4768821;30;20215;-80
2022/11/12 09:05:50;;;;;;;42.57;22.23;;;8.90;99.90;;;;;;4768975;30;20218;-85
2022/11/12 09:08:20;;;;;;;43.63;22.13;;;8.80;99.90;;;;;;4769093;30;20560;-82
2022/11/12 09:10:48;;;;;;;39.63;21.80;;;8.80;99.90;;;;;;4754358;30;20500;-84
2022/11/12 09:13:19;;;;;;;43.97;22.83;;;8.80;99.90;;;;;;4770726;30;20196;-85
2022/11/12 09:15:46;;;;;;;37.13;20.30;;;8.70;99.90;;;;;;4770177;30;20287;-86
2022/11/12 09:18:16;;;;;;;41.43;22.53;;;8.70;99.90;;;;;;4768770;30;20615;-85
2022/11/12 09:20:43;;;;;;;42.00;21.90;;;8.90;99.90;;;;;;4754213;30;20208;-86
2022/11/12 09:23:12;;;;;;;45.33;23.03;;;8.80;99.90;;;;;;4757758;30;20414;-86
2022/11/12 09:25:40;;;;;;;43.93;22.63;;;8.60;99.90;;;;;;4772161;30;20208;-86
2022/11/12 09:28:11;;;;;;;45.87;23.23;;;8.60;99.90;;;;;;4774079;30;20670;-85
2022/11/12 09:30:44;;;;;;;42.00;22.20;;;8.80;99.90;;;;;;4757738;30;20226;-86
2022/11/12 09:33:29;;;;;;;47.07;24.07;;;8.90;99.90;;;;;;4775213;30;20224;-85
2022/11/12 09:36:02;;;;;;;49.60;22.83;;;8.90;99.90;;;;;;4757932;30;20678;-85
2022/11/12 09:38:29;;;;;;;46.13;23.50;;;8.80;99.90;;;;;;4759051;30;20192;-86
2022/11/12 09:41:08;;;;;;;45.33;23.57;;;8.90;99.90;;;;;;4779060;30;20211;-86
2022/11/12 09:43:58;;;;;;;45.57;23.60;;;8.70;99.90;;;;;;4775955;30;20652;-87
2022/11/12 09:46:51;;;;;;;48.33;23.90;;;8.70;99.90;;;;;;4772861;30;20232;-81
2022/11/12 09:49:42;;;;;;;46.77;24.07;;;8.70;99.90;;;;;;4756253;30;20719;-81
2022/11/12 09:52:18;;;;;;;46.70;24.57;;;8.80;99.90;;;;;;4756705;30;20223;-83
2022/11/12 09:54:49;;;;;;;46.93;24.97;;;8.70;99.90;;;;;;4756607;30;20236;-82
2022/11/12 09:57:16;;;;;;;47.03;24.80;;;8.70;99.90;;;;;;4773175;30;20559;-82
2022/11/12 09:59:43;;;;;;;47.60;24.20;;;8.60;99.90;;;;;;4771375;30;20241;-85
2022/11/12 10:02:22;;;;;;;48.20;24.80;;;8.60;99.90;;;;;;4756762;30;20268;-81
2022/11/12 10:05:13;;;;;;;54.60;27.13;;;8.80;99.90;;;;;;4756851;30;20195;-83
2022/11/12 10:07:51;;;;;;;51.43;25.80;;;8.60;99.90;;;;;;4771580;30;20244;-79
2022/11/12 10:10:44;;;;;;;56.07;25.87;;;8.70;99.90;;;;;;4756418;30;20666;-82
2022/11/12 10:13:14;;;;;;;54.13;27.50;;;8.80;99.90;;;;;;4771259;30;20196;-80
2022/11/12 10:19:02;;;;;;;51.57;26.07;;;8.70;99.90;;;;;;4770975;30;20218;-83
2022/11/12 10:21:41;;;;;;;55.80;27.33;;;8.80;99.90;;;;;;4756084;30;20216;-82
2022/11/12 10:24:10;;;;;;;52.20;26.63;;;8.80;99.90;;;;;;4756377;30;20227;-80
2022/11/12 10:26:39;;;;;;;49.60;26.00;;;8.80;99.90;;;;;;4756077;30;20204;-85
2022/11/12 10:29:30;;;;;;;54.23;27.00;;;8.80;99.90;;;;;;4772037;30;20287;-84
2022/11/12 10:32:01;;;;;;;52.57;26.47;;;8.70;99.90;;;;;;4755959;30;20254;-85
2022/11/12 10:34:30;;;;;;;52.40;26.40;;;8.70;99.90;;;;;;4770812;30;20205;-83
2022/11/12 10:37:06;;;;;;;53.73;27.10;;;8.60;99.90;;;;;;4770597;30;20272;-85
2022/11/12 10:39:40;;;;;;;53.03;26.47;;;8.60;99.90;;;;;;4756255;30;20231;-86
2022/11/12 10:42:12;;;;;;;48.20;26.53;;;8.70;99.90;;;;;;4755760;30;20208;-86
2022/11/12 10:44:42;;;;;;;47.73;26.63;;;8.60;99.90;;;;;;4770429;30;20204;-86
2022/11/12 10:47:20;;;;;;;50.60;26.03;;;8.70;99.90;;;;;;4755472;30;20219;-84
2022/11/12 10:50:09;;;;;;;54.10;27.37;;;8.80;99.90;;;;;;4755912;30;20212;-83
2022/11/12 10:52:36;;;;;;;52.97;27.80;;;8.80;99.90;;;;;;4771443;30;20240;-86
2022/11/12 10:55:16;;;;;;;52.43;28.00;;;8.70;99.90;;;;;;4755861;30;20228;-85
2022/11/12 10:57:43;;;;;;;51.23;26.90;;;8.70;99.90;;;;;;4770148;30;20276;-85
2022/11/12 11:00:17;;;;;;;52.63;26.73;;;8.70;99.90;;;;;;4771100;30;20738;-84
2022/11/12 11:02:54;;;;;;;52.00;28.27;;;8.60;99.90;;;;;;4772222;30;20195;-86
2022/11/12 11:05:52;;;;;;;50.53;27.73;;;8.60;99.90;;;;;;4755175;30;20201;-85
2022/11/12 11:08:39;;;;;;;50.43;27.60;;;8.70;99.90;;;;;;4755640;30;20570;-88
2022/11/12 11:11:19;;;;;;;63.30;29.90;;;8.70;99.90;;;;;;4771223;30;20220;-82
2022/11/12 11:13:49;;;;;;;54.27;27.90;;;8.90;99.90;;;;;;4754845;30;20244;-80
2022/11/12 11:16:27;;;;;;;51.83;28.30;;;9.00;99.90;;;;;;4755097;30;20614;-81
2022/11/12 11:19:01;;;;;;;53.87;28.57;;;9.10;99.90;;;;;;4754698;30;20578;-80
2022/11/12 11:21:49;;;;;;;53.73;28.10;;;9.10;99.90;;;;;;4754978;30;20228;-81
2022/11/12 11:24:21;;;;;;;54.93;27.87;;;9.10;99.90;;;;;;4770926;30;20193;-80
2022/11/12 11:26:55;;;;;;;49.37;27.97;;;9.00;99.90;;;;;;4755008;30;20216;-80
2022/11/12 11:29:38;;;;;;;46.20;25.90;;;9.00;99.90;;;;;;4769837;30;20614;-81
2022/11/12 11:32:18;;;;;;;50.20;27.97;;;8.90;99.90;;;;;;4769753;30;20683;-81
2022/11/12 11:35:24;;;;;;;54.83;27.87;;;8.80;99.90;;;;;;4770795;30;20197;-82
2022/11/12 11:37:51;;;;;;;55.60;28.03;;;8.90;99.90;;;;;;4754793;30;20209;-83
2022/11/12 11:40:35;;;;;;;49.47;27.70;;;8.90;99.90;;;;;;4770773;30;20561;-83
2022/11/12 11:43:24;;;;;;;52.77;29.43;;;8.90;99.90;;;;;;4769895;30;20210;-81
2022/11/12 11:46:20;;;;;;;48.30;27.83;;;9.10;99.90;;;;;;4771697;30;20232;-82
2022/11/12 11:48:52;;;;;;;46.93;27.40;;;9.20;99.90;;;;;;4718481;30;20574;-82
2022/11/12 11:51:42;;;;;;;52.83;29.77;;;9.30;99.90;;;;;;4733587;30;20272;-82
2022/11/12 11:54:29;;;;;;;48.30;27.07;;;9.30;99.90;;;;;;4732737;30;20246;-82
2022/11/12 11:56:59;;;;;;;49.80;27.93;;;9.20;99.90;;;;;;4733358;30;20209;-83
2022/11/12 11:59:49;;;;;;;49.37;27.10;;;9.30;99.90;;;;;;4733539;30;20320;-85
2022/11/12 12:02:28;;;;;;;48.13;27.33;;;9.20;99.90;;;;;;4733272;30;20223;-82
2022/11/12 12:05:05;;;;;;;49.23;28.27;;;9.00;99.90;;;;;;4733349;30;20205;-84
2022/11/12 12:08:04;;;;;;;54.27;27.87;;;9.00;99.90;;;;;;4732906;30;20240;-83
2022/11/12 12:11:00;;;;;;;48.10;26.83;;;9.20;99.90;;;;;;4733549;30;20214;-84
2022/11/12 12:13:54;;;;;;;50.40;27.47;;;9.20;99.90;;;;;;4733046;30;20245;-82
2022/11/12 12:16:52;;;;;;;57.57;28.07;;;9.20;99.90;;;;;;4733356;30;20229;-88
2022/11/12 12:19:37;;;;;;;47.03;24.87;;;9.20;99.90;;;;;;4723497;30;20255;-82
2022/11/12 12:22:13;;;;;;;41.73;24.57;;;9.20;99.90;;;;;;4732728;30;20227;-85
2022/11/12 12:25:08;;;;;;;41.27;23.93;;;9.30;99.90;;;;;;4733234;30;20222;-85
2022/11/12 12:27:41;;;;;;;42.87;25.50;;;9.10;99.90;;;;;;4770467;30;20247;-85
2022/11/12 12:30:26;;;;;;;44.03;25.20;;;8.90;99.90;;;;;;4770165;30;20216;-81
2022/11/12 12:33:19;;;;;;;40.83;24.20;;;9.00;99.90;;;;;;4768922;30;20208;-83
2022/11/12 12:35:51;;;;;;;41.47;23.53;;;9.00;99.90;;;;;;4732338;30;20245;-81
2022/11/12 12:38:27;;;;;;;48.50;24.33;;;9.00;99.90;;;;;;4718203;30;20224;-81
2022/11/12 12:41:11;;;;;;;43.73;23.27;;;8.90;99.90;;;;;;4732721;30;20237;-82
2022/11/12 12:44:02;;;;;;;38.83;22.50;;;9.00;99.90;;;;;;4732562;30;20208;-81
2022/11/12 12:46:35;;;;;;;36.27;20.67;;;9.00;99.90;;;;;;4717646;30;20212;-83
2022/11/12 12:49:09;;;;;;;42.60;21.97;;;9.00;99.90;;;;;;4732741;30;20198;-83
2022/11/12 12:51:36;;;;;;;40.47;22.03;;;9.10;99.90;;;;;;4732802;30;20579;-83
2022/11/12 12:54:24;;;;;;;35.47;21.33;;;9.20;99.90;;;;;;4732038;30;20747;-83
2022/11/12 12:56:51;;;;;;;40.80;21.83;;;9.20;99.90;;;;;;4706633;30;20213;-83
2022/11/12 12:59:21;;;;;;;37.20;21.33;;;9.40;99.90;;;;;;4736022;30;20610;-85
2022/11/12 13:01:57;;;;;;;36.00;21.37;;;9.30;99.90;;;;;;4736176;30;20303;-78
2022/11/12 13:04:53;;;;;;;39.00;20.10;;;9.40;99.90;;;;;;4735800;30;20227;-80
2022/11/12 13:07:43;;;;;;;30.97;17.50;;;9.40;99.90;;;;;;4721105;30;20206;-83
2022/11/12 13:10:40;;;;;;;31.27;17.13;;;9.30;99.90;;;;;;4736183;30;20220;-79
2022/11/12 13:13:16;;;;;;;30.67;16.77;;;9.30;99.90;;;;;;4742187;30;20631;-81
2022/11/12 13:15:47;;;;;;;27.37;16.53;;;9.40;99.90;;;;;;4757889;30;20204;-83
2022/11/12 13:18:35;;;;;;;28.13;16.07;;;9.30;99.90;;;;;;4777527;30;20217;-79
2022/11/12 13:21:14;;;;;;;30.57;16.07;;;9.40;99.90;;;;;;4771925;30;20324;-78
2022/11/12 13:26:38;;;;;;;27.77;14.50;;;9.30;99.90;;;;;;4771877;30;20561;-79